createdAt,value
2019-04-23T00:02:23.293Z,37.40
2019-04-23T00:04:52.862Z,38.67
2019-04-23T00:07:44.524Z,37.50
2019-04-23T00:10:13.932Z,38.13
2019-04-23T00:12:43.790Z,37.73
2019-04-23T00:15:15.081Z,37.80
2019-04-23T00:23:02.085Z,35.78
2019-04-23T00:28:20.600Z,35.70
2019-04-23T00:33:31.435Z,35.27
2019-04-23T00:35:49.872Z,35.35
2019-04-23T00:38:30.447Z,33.67
2019-04-23T00:41:01.678Z,34.13
2019-04-23T00:43:30.342Z,34.20
2019-04-23T00:45:59.608Z,34.90
2019-04-23T00:51:02.332Z,33.65
2019-04-23T00:53:36.989Z,34.60
2019-04-23T00:56:35.572Z,34.55
2019-04-23T00:58:49.533Z,35.17
2019-04-23T01:01:33.855Z,35.83
2019-04-23T01:06:29.118Z,35.75
2019-04-23T01:09:03.859Z,34.70
2019-04-23T01:11:32.421Z,34.90
2019-04-23T01:14:08.160Z,34.73
2019-04-23T01:16:37.366Z,35.23
2019-04-23T01:19:31.580Z,35.73
2019-04-23T01:21:36.763Z,34.85
2019-04-23T01:24:17.267Z,36.10
2019-04-23T01:27:41.220Z,37.10
2019-04-23T01:30:06.014Z,37.10
2019-04-23T01:35:20.366Z,37.98
2019-04-23T01:42:44.885Z,37.17
2019-04-23T01:45:26.894Z,38.25
2019-04-23T01:47:50.494Z,37.53
2019-04-23T01:50:31.181Z,39.00
2019-04-23T01:53:00.785Z,37.78
2019-04-23T01:55:33.053Z,37.80
2019-04-23T01:58:20.382Z,37.67
2019-04-23T02:00:45.109Z,38.23
2019-04-23T02:03:26.610Z,37.98
2019-04-23T02:08:17.136Z,38.73
2019-04-23T02:15:53.128Z,37.73
2019-04-23T02:18:34.384Z,38.23
2019-04-23T02:21:07.604Z,38.58
2019-04-23T02:23:44.321Z,39.27
2019-04-23T02:26:20.126Z,38.45
2019-04-23T02:28:54.866Z,38.20
2019-04-23T02:31:45.100Z,38.40
2019-04-23T02:34:19.032Z,38.40
2019-04-23T02:36:41.621Z,38.15
2019-04-23T02:39:02.836Z,39.42
2019-04-23T02:44:19.143Z,40.13
2019-04-23T02:49:36.051Z,41.65
2019-04-23T02:54:44.259Z,42.55
2019-04-23T02:56:55.749Z,44.00
2019-04-23T03:07:36.601Z,55.55
2019-04-23T03:10:02.870Z,43.08
2019-04-23T03:18:16.287Z,41.77
2019-04-23T03:20:50.672Z,41.05
2019-04-23T03:23:16.499Z,41.17
2019-04-23T03:25:46.097Z,41.93
2019-04-23T03:28:26.988Z,43.87
2019-04-23T03:43:41.126Z,40.92
2019-04-23T03:48:46.687Z,44.35
2019-04-23T03:54:11.625Z,52.85
2019-04-23T03:56:34.333Z,51.13
2019-04-23T03:58:58.223Z,49.25
2019-04-23T04:04:26.341Z,51.25
2019-04-23T04:11:38.178Z,50.30
2019-04-23T04:14:33.851Z,49.90
2019-04-23T04:19:35.009Z,48.08
2019-04-23T04:22:16.438Z,47.95
2019-04-23T04:27:05.389Z,47.33
2019-04-23T04:29:47.442Z,46.37
2019-04-23T04:32:03.679Z,46.85
2019-04-23T04:35:06.907Z,46.05
2019-04-23T04:37:35.566Z,46.65
2019-04-23T04:42:18.718Z,49.67
2019-04-23T04:45:09.622Z,54.88
2019-04-23T04:47:36.219Z,55.17
2019-04-23T04:49:59.686Z,58.58
2019-04-23T05:03:03.666Z,61.25
2019-04-23T05:05:55.363Z,60.30
2019-04-23T05:10:32.499Z,57.60
2019-04-23T05:13:21.837Z,56.48
2019-04-23T05:15:35.533Z,55.65
2019-04-23T05:18:19.618Z,54.88
2019-04-23T05:20:48.308Z,45.70
2019-04-23T05:25:47.877Z,43.07
2019-04-23T05:28:18.815Z,42.73
2019-04-23T05:33:49.335Z,41.13
2019-04-23T05:36:12.324Z,42.27
2019-04-23T05:38:43.284Z,43.28
2019-04-23T05:41:10.409Z,43.68
2019-04-23T05:43:40.780Z,44.20
2019-04-23T05:46:21.891Z,46.25
2019-04-23T05:48:49.265Z,50.03
2019-04-23T05:51:27.945Z,56.83
2019-04-23T05:53:50.980Z,58.98
2019-04-23T05:56:22.625Z,62.80
2019-04-23T05:58:58.152Z,52.10
2019-04-23T06:01:49.906Z,47.55
2019-04-23T06:04:10.534Z,49.08
2019-04-23T06:11:56.959Z,44.18
2019-04-23T06:17:00.471Z,42.73
2019-04-23T06:19:20.817Z,43.63
2019-04-23T06:22:13.940Z,47.27
2019-04-23T06:24:39.786Z,62.15
2019-04-23T06:27:10.282Z,74.42
2019-04-23T06:29:44.706Z,62.15
2019-04-23T06:32:22.253Z,52.40
2019-04-23T06:35:08.751Z,49.58
2019-04-23T06:37:18.370Z,47.30
2019-04-23T06:39:57.033Z,45.65
2019-04-23T06:42:27.872Z,44.60
2019-04-23T06:47:29.374Z,43.78
2019-04-23T06:49:58.513Z,43.28
2019-04-23T06:52:31.429Z,39.10
2019-04-23T06:55:18.659Z,24.73
2019-04-23T06:58:02.198Z,23.07
2019-04-23T07:00:23.939Z,24.87
2019-04-23T07:02:56.675Z,24.55
2019-04-23T07:05:37.910Z,20.77
2019-04-23T07:10:42.188Z,18.23
2019-04-23T07:13:03.179Z,17.93
2019-04-23T07:15:48.470Z,17.07
2019-04-23T07:18:11.913Z,16.42
2019-04-23T07:20:50.934Z,14.45
2019-04-23T07:23:26.065Z,15.83
2019-04-23T07:25:59.328Z,15.10
2019-04-23T07:28:29.927Z,15.28
2019-04-23T07:31:02.454Z,15.98
2019-04-23T07:33:34.766Z,15.98
2019-04-23T07:36:15.614Z,16.57
2019-04-23T07:38:54.693Z,22.15
2019-04-23T07:41:47.869Z,22.25
2019-04-23T07:44:24.905Z,21.35
2019-04-23T07:47:03.334Z,19.77
2019-04-23T07:49:23.440Z,20.52
2019-04-23T07:52:03.625Z,19.60
2019-04-23T07:54:29.002Z,20.23
2019-04-23T07:57:12.211Z,20.03
2019-04-23T08:02:15.976Z,18.45
2019-04-23T08:04:57.913Z,19.02
2019-04-23T08:07:14.677Z,18.12
2019-04-23T08:12:29.170Z,17.27
2019-04-23T08:15:15.134Z,17.32
2019-04-23T08:17:26.170Z,16.55
2019-04-23T08:20:03.064Z,16.93
2019-04-23T08:22:32.354Z,16.52
2019-04-23T08:25:29.951Z,16.10
2019-04-23T08:27:45.146Z,15.23
2019-04-23T08:30:10.460Z,14.93
2019-04-23T08:32:52.346Z,14.60
2019-04-23T08:35:23.216Z,15.68
2019-04-23T08:38:11.678Z,15.98
2019-04-23T08:40:38.185Z,16.35
2019-04-23T08:43:29.589Z,18.67
2019-04-23T08:45:57.849Z,16.85
2019-04-23T08:51:19.417Z,15.78
2019-04-23T08:53:46.013Z,14.65
2019-04-23T08:56:15.499Z,14.63
2019-04-23T08:58:41.952Z,15.32
2019-04-23T09:01:16.905Z,15.63
2019-04-23T09:03:45.751Z,16.42
2019-04-23T09:06:25.822Z,15.23
2019-04-23T09:08:58.578Z,15.88
2019-04-23T09:11:44.016Z,15.75
2019-04-23T09:13:59.680Z,15.70
2019-04-23T09:16:46.899Z,14.83
2019-04-23T09:19:20.032Z,15.13
2019-04-23T09:21:56.002Z,15.00
2019-04-23T09:24:22.831Z,14.10
2019-04-23T09:27:03.878Z,15.30
2019-04-23T09:29:30.567Z,15.65
2019-04-23T09:34:46.498Z,17.05
2019-04-23T09:37:28.327Z,17.87
2019-04-23T09:40:18.876Z,18.82
2019-04-23T09:43:02.020Z,17.70
2019-04-23T09:48:08.566Z,20.47
2019-04-23T09:50:57.039Z,21.05
2019-04-23T09:53:33.914Z,21.10
2019-04-23T09:56:05.034Z,20.10
2019-04-23T09:58:28.724Z,19.57
2019-04-23T10:01:23.472Z,18.42
2019-04-23T10:03:46.281Z,19.23
2019-04-23T10:06:14.492Z,19.48
2019-04-23T10:08:46.472Z,19.32
2019-04-23T10:11:13.792Z,18.95
2019-04-23T10:13:45.581Z,19.57
2019-04-23T10:16:19.408Z,18.60
2019-04-23T10:18:50.904Z,19.25
2019-04-23T10:21:23.713Z,18.32
2019-04-23T10:23:55.207Z,19.13
2019-04-23T10:26:28.090Z,18.20
2019-04-23T10:29:02.320Z,18.12
2019-04-23T10:31:35.633Z,17.30
2019-04-23T10:34:08.281Z,18.10
2019-04-23T10:36:40.654Z,18.62
2019-04-23T10:39:20.757Z,18.55
2019-04-23T10:41:46.793Z,19.17
2019-04-23T10:44:23.524Z,19.92
2019-04-23T10:47:40.436Z,20.12
2019-04-23T10:50:40.722Z,20.05
2019-04-23T10:53:23.431Z,19.67
2019-04-23T10:55:47.928Z,19.73
2019-04-23T10:58:15.793Z,18.60
2019-04-23T11:00:44.960Z,19.47
2019-04-23T11:03:32.014Z,18.57
2019-04-23T11:08:24.890Z,19.57
2019-04-23T11:10:58.743Z,19.82
2019-04-23T11:13:56.583Z,20.60
2019-04-23T11:21:23.803Z,19.20
2019-04-23T11:23:55.206Z,19.20
2019-04-23T11:26:31.874Z,19.20
2019-04-23T11:28:55.042Z,20.48
2019-04-23T11:31:35.151Z,19.67
2019-04-23T11:34:06.051Z,19.30
2019-04-23T11:39:05.477Z,20.05
2019-04-23T11:41:51.457Z,19.07
2019-04-23T11:52:09.777Z,18.12
2019-04-23T11:54:33.724Z,18.60
2019-04-23T11:57:34.622Z,17.45
2019-04-23T11:59:44.023Z,17.00
2019-04-23T12:02:12.050Z,17.73
2019-04-23T12:05:02.340Z,16.93
2019-04-23T12:07:37.604Z,17.48
2019-04-23T12:10:19.833Z,16.62
2019-04-23T12:12:55.545Z,17.07
2019-04-23T12:15:23.819Z,16.55
2019-04-23T12:20:28.909Z,16.12
2019-04-23T12:23:07.430Z,16.35
2019-04-23T12:25:32.794Z,16.77
2019-04-23T12:27:59.626Z,16.45
2019-04-23T12:30:43.022Z,17.02
2019-04-23T12:33:11.107Z,17.75
2019-04-23T12:35:42.291Z,16.97
2019-04-23T12:40:51.094Z,17.02
2019-04-23T12:43:27.485Z,17.48
2019-04-23T12:45:51.959Z,17.05
2019-04-23T12:50:58.663Z,16.60
2019-04-23T12:53:49.336Z,16.30
2019-04-23T12:56:20.532Z,16.30
2019-04-23T12:58:37.898Z,15.80
2019-04-23T13:01:25.666Z,16.17
2019-04-23T13:03:47.434Z,16.45
2019-04-23T13:06:20.725Z,15.83
2019-04-23T13:09:08.053Z,15.58
2019-04-23T13:11:36.605Z,15.35
2019-04-23T13:14:10.557Z,15.30
2019-04-23T13:16:48.809Z,16.17
2019-04-23T13:19:25.679Z,15.75
2019-04-23T13:24:25.973Z,16.12
2019-04-23T13:27:06.108Z,16.37
2019-04-23T13:32:15.254Z,16.60
2019-04-23T13:34:48.367Z,15.72
2019-04-23T13:37:25.698Z,15.80
2019-04-23T13:39:53.001Z,15.83
2019-04-23T13:42:33.759Z,16.25
2019-04-23T13:45:07.033Z,16.40
2019-04-23T13:50:07.874Z,15.70
2019-04-23T13:53:09.646Z,15.88
2019-04-23T13:58:05.103Z,15.58
2019-04-23T14:00:24.961Z,15.45
2019-04-23T14:02:56.093Z,16.30
2019-04-23T14:05:33.110Z,15.65
2019-04-23T14:08:12.991Z,15.60
2019-04-23T14:10:39.708Z,16.65
2019-04-23T14:15:53.574Z,15.43
2019-04-23T14:21:03.602Z,16.50
2019-04-23T14:23:41.191Z,16.20
2019-04-23T14:26:20.766Z,16.45
2019-04-23T14:28:41.698Z,15.88
2019-04-23T14:33:46.015Z,16.00
2019-04-23T14:36:16.068Z,15.80
2019-04-23T14:38:52.733Z,15.25
2019-04-23T14:46:45.553Z,16.50
2019-04-23T14:51:37.514Z,14.98
2019-04-23T14:54:04.855Z,14.18
2019-04-23T14:56:44.986Z,14.90
2019-04-23T14:59:19.468Z,14.33
2019-04-23T15:01:48.978Z,15.35
2019-04-23T15:04:24.281Z,16.15
2019-04-23T15:07:02.584Z,15.00
2019-04-23T15:12:11.827Z,14.60
2019-04-23T15:14:47.930Z,14.03
2019-04-23T15:17:13.102Z,14.30
2019-04-23T15:28:03.443Z,13.60
2019-04-23T15:29:48.456Z,14.23
2019-04-23T15:32:34.330Z,14.73
2019-04-23T15:35:16.278Z,14.23
2019-04-23T15:37:58.240Z,13.70
2019-04-23T15:40:08.017Z,14.25
2019-04-23T15:42:48.480Z,13.90
2019-04-23T15:45:19.033Z,14.95
2019-04-23T15:47:52.485Z,15.98
2019-04-23T15:53:01.327Z,15.60
2019-04-23T15:55:44.375Z,15.07
2019-04-23T15:58:14.537Z,14.58
2019-04-23T16:00:46.793Z,14.25
2019-04-23T16:02:52.563Z,14.53
2019-04-23T16:05:25.726Z,14.73
2019-04-23T16:08:23.920Z,14.77
2019-04-23T16:11:09.805Z,14.63
2019-04-23T16:13:39.850Z,14.68
2019-04-23T16:16:07.709Z,14.33
2019-04-23T16:18:49.884Z,14.83
2019-04-23T16:21:29.224Z,14.65
2019-04-23T16:24:01.215Z,14.45
2019-04-23T16:26:30.098Z,14.37
2019-04-23T16:31:46.814Z,15.73
2019-04-23T16:34:23.911Z,16.00
2019-04-23T16:36:56.459Z,15.83
2019-04-23T16:39:21.988Z,15.55
2019-04-23T16:42:02.034Z,16.10
2019-04-23T16:44:38.787Z,15.80
2019-04-23T16:47:13.061Z,15.03
2019-04-23T16:49:42.353Z,14.80
2019-04-23T16:52:16.086Z,16.00
2019-04-23T16:54:53.548Z,15.55
2019-04-23T16:57:33.243Z,16.67
2019-04-23T17:00:06.635Z,16.40
2019-04-23T17:05:02.987Z,15.60
2019-04-23T17:07:24.268Z,15.90
2019-04-23T17:10:11.266Z,17.00
2019-04-23T17:12:35.541Z,17.10
2019-04-23T17:15:07.608Z,16.35
2019-04-23T17:17:37.950Z,18.05
2019-04-23T17:20:16.261Z,16.95
2019-04-23T17:23:00.297Z,18.77
2019-04-23T17:28:03.663Z,20.90
2019-04-23T17:33:18.670Z,18.52
2019-04-23T17:36:05.505Z,19.02
2019-04-23T17:38:42.547Z,18.02
2019-04-23T17:41:31.173Z,17.67
2019-04-23T17:44:18.156Z,17.27
2019-04-23T17:49:15.316Z,17.10
2019-04-23T17:52:09.117Z,18.45
2019-04-23T17:54:17.424Z,18.27
2019-04-23T17:59:28.106Z,21.05
2019-04-23T18:02:36.717Z,23.70
2019-04-23T18:04:33.278Z,23.60
2019-04-23T18:07:04.375Z,25.02
2019-04-23T18:09:37.956Z,23.27
2019-04-23T18:12:25.413Z,23.80
2019-04-23T18:14:39.242Z,21.45
2019-04-23T18:17:17.779Z,21.47
2019-04-23T18:20:14.960Z,22.00
2019-04-23T18:22:47.146Z,22.60
2019-04-23T18:25:28.031Z,21.60
2019-04-23T18:27:57.927Z,19.05
2019-04-23T18:30:51.064Z,17.17
2019-04-23T18:33:40.649Z,17.27
2019-04-23T18:41:01.322Z,16.93
2019-04-23T18:46:02.287Z,16.20
2019-04-23T18:53:45.626Z,14.00
2019-04-23T19:01:24.410Z,13.25
2019-04-23T19:04:09.814Z,12.43
2019-04-23T19:06:29.414Z,13.00
2019-04-23T19:12:07.174Z,11.90
2019-04-23T19:14:25.678Z,12.60
2019-04-23T19:17:25.039Z,12.18
2019-04-23T19:19:28.614Z,11.65
2019-04-23T19:22:19.392Z,12.13
2019-04-23T19:24:31.673Z,11.08
2019-04-23T19:29:46.281Z,10.45
2019-04-23T19:32:32.385Z,9.93
2019-04-23T19:34:42.614Z,9.50
2019-04-23T19:37:31.870Z,9.75
2019-04-23T19:39:47.741Z,9.50
2019-04-23T19:42:28.255Z,9.28
2019-04-23T19:44:54.079Z,8.80
2019-04-23T19:47:47.993Z,8.50
2019-04-23T19:50:05.410Z,8.33
2019-04-23T19:52:59.290Z,8.33
2019-04-23T19:55:11.922Z,7.80
2019-04-23T19:57:56.490Z,8.33
2019-04-23T20:00:19.332Z,7.92
2019-04-23T20:03:22.604Z,7.78
2019-04-23T20:05:24.716Z,11.43
2019-04-23T20:08:08.241Z,11.63
2019-04-23T20:10:33.055Z,9.40
2019-04-23T20:13:02.083Z,9.03
2019-04-23T20:15:49.263Z,8.60
2019-04-23T20:18:05.273Z,8.45
2019-04-23T20:23:30.686Z,8.13
2019-04-23T20:26:12.211Z,8.30
2019-04-23T20:28:51.301Z,7.85
2019-04-23T20:31:54.564Z,7.58
2019-04-23T20:36:34.619Z,7.50
2019-04-23T20:39:09.296Z,7.83
2019-04-23T20:42:02.344Z,7.93
2019-04-23T20:47:08.576Z,7.22
2019-04-23T20:49:42.657Z,7.92
2019-04-23T20:57:43.961Z,8.00
2019-04-23T21:05:27.930Z,8.08
2019-04-23T21:07:57.982Z,9.03
2019-04-23T21:10:34.929Z,7.25
2019-04-23T21:15:42.155Z,7.72
2019-04-23T21:20:42.986Z,7.90
2019-04-23T21:25:47.620Z,8.70
2019-04-23T21:31:06.575Z,8.30
2019-04-23T21:33:43.905Z,8.43
2019-04-23T21:46:47.917Z,7.97
2019-04-23T21:49:18.044Z,7.33
2019-04-23T21:54:14.926Z,7.03
2019-04-23T21:56:46.953Z,7.33
2019-04-23T21:59:13.385Z,7.22
2019-04-23T22:01:54.313Z,7.30
2019-04-23T22:04:35.727Z,7.47
2019-04-23T22:06:59.106Z,7.28
2019-04-23T22:12:08.377Z,7.00
2019-04-23T22:14:45.673Z,7.12
2019-04-23T22:17:20.223Z,7.08
2019-04-23T22:19:59.819Z,7.15
2019-04-23T22:22:32.332Z,7.20
2019-04-23T22:24:53.319Z,7.45
2019-04-23T22:27:32.823Z,7.25
2019-04-23T22:29:59.103Z,7.50
2019-04-23T22:35:07.646Z,8.40
2019-04-23T22:37:53.959Z,8.23
2019-04-23T22:40:18.158Z,8.68
2019-04-23T22:43:09.819Z,9.00
2019-04-23T22:45:26.573Z,9.40
2019-04-23T22:50:28.237Z,10.60
2019-04-23T22:53:08.757Z,10.58
2019-04-23T22:55:40.504Z,10.00
2019-04-23T23:00:59.641Z,12.40
2019-04-23T23:03:33.364Z,12.88
2019-04-23T23:08:55.983Z,13.83
2019-04-23T23:11:13.624Z,14.90
2019-04-23T23:14:10.114Z,13.78
2019-04-23T23:16:21.358Z,13.97
2019-04-23T23:19:06.577Z,13.72
2019-04-23T23:21:33.821Z,12.98
2019-04-23T23:24:06.151Z,12.85
2019-04-23T23:26:51.873Z,12.80
2019-04-23T23:29:12.378Z,12.60
2019-04-23T23:31:54.182Z,13.32
2019-04-23T23:42:05.965Z,13.95
2019-04-23T23:47:07.341Z,13.72
2019-04-23T23:49:43.864Z,14.33
2019-04-23T23:52:13.184Z,13.13
2019-04-23T23:54:48.410Z,12.80
2019-04-23T23:57:16.562Z,12.40
